Time;durP1;ratioP1;P1;durP2;ratioP2;P2;SDS_P1;SDS_P2;PMS_P1;PMS_P2;Temp;Humidity;BMP_temperature;BMP_pressure;BME280_temperature;BME280_humidity;BME280_pressure;Samples;Min_cycle;Max_cycle;Signal;HPM_P1;HPM_P2
2023/09/07 00:00:39;;;;;;;8.80;7.07;;;17.80;18.30;;;;;;5008223;28;20488;-68
2023/09/07 00:03:06;;;;;;;9.00;7.17;;;17.80;18.40;;;;;;5007341;28;20488;-68
2023/09/07 00:05:34;;;;;;;12.03;7.70;;;17.80;18.80;;;;;;5006194;28;20472;-68
2023/09/07 00:08:01;;;;;;;10.60;7.67;;;17.70;18.80;;;;;;5007091;28;20472;-68
2023/09/07 00:10:28;;;;;;;10.03;7.17;;;17.70;18.80;;;;;;5007948;28;20464;-68
2023/09/07 00:12:54;;;;;;;13.37;8.40;;;17.70;19.10;;;;;;5007164;28;21198;-68
2023/09/07 00:15:21;;;;;;;10.90;6.87;;;17.60;19.00;;;;;;5004110;28;20475;-68
2023/09/07 00:17:49;;;;;;;11.27;6.40;;;17.60;19.20;;;;;;5007336;28;20482;-68
2023/09/07 00:20:15;;;;;;;10.93;7.03;;;17.60;19.10;;;;;;5007380;28;20548;-68
2023/09/07 00:22:43;;;;;;;9.07;6.97;;;17.60;19.10;;;;;;5006016;28;20475;-68
2023/09/07 00:25:10;;;;;;;8.57;7.20;;;17.60;19.20;;;;;;5007262;28;20834;-68
2023/09/07 00:27:37;;;;;;;9.00;6.47;;;17.60;19.20;;;;;;5006054;28;20483;-68
2023/09/07 00:30:05;;;;;;;9.30;6.80;;;17.50;19.40;;;;;;5022179;23;20465;-63
2023/09/07 00:32:33;;;;;;;8.47;6.80;;;17.50;19.50;;;;;;5020209;28;20482;-63
2023/09/07 00:35:00;;;;;;;9.93;7.83;;;17.50;19.70;;;;;;5025334;28;20851;-63
2023/09/07 00:37:26;;;;;;;7.90;6.33;;;17.40;19.60;;;;;;5018011;28;20467;-64
2023/09/07 00:39:54;;;;;;;8.50;7.03;;;17.40;19.60;;;;;;5022263;28;20481;-64
2023/09/07 00:42:21;;;;;;;9.37;6.60;;;17.40;19.70;;;;;;5022483;28;20466;-63
2023/09/07 00:44:48;;;;;;;11.47;7.40;;;17.40;19.60;;;;;;5023603;28;20495;-63
2023/09/07 00:47:15;;;;;;;8.40;6.33;;;17.40;19.70;;;;;;5027697;28;20469;-63
2023/09/07 00:49:42;;;;;;;9.53;6.20;;;17.40;19.70;;;;;;5023127;28;20467;-63
2023/09/07 00:52:09;;;;;;;9.40;6.13;;;17.30;19.90;;;;;;5023882;28;21003;-63
2023/09/07 00:54:38;;;;;;;8.30;6.37;;;17.30;20.00;;;;;;5022028;28;20542;-63
2023/09/07 00:57:06;;;;;;;9.00;6.67;;;17.30;20.10;;;;;;5019721;28;20473;-63
2023/09/07 00:59:34;;;;;;;9.27;6.80;;;17.20;20.30;;;;;;5022501;28;20498;-63
2023/09/07 01:02:00;;;;;;;9.00;6.60;;;17.20;20.00;;;;;;5024109;28;20483;-63
2023/09/07 01:04:27;;;;;;;8.77;6.53;;;17.20;20.20;;;;;;5022232;28;21022;-63
2023/09/07 01:06:59;;;;;;;9.50;6.90;;;17.20;20.30;;;;;;5024142;28;20466;-63
2023/09/07 01:09:29;;;;;;;8.53;6.47;;;17.20;20.30;;;;;;5017671;28;20466;-63
2023/09/07 01:11:56;;;;;;;10.70;6.73;;;17.20;20.70;;;;;;5025273;28;20487;-63
2023/09/07 01:14:24;;;;;;;12.97;6.70;;;17.20;20.70;;;;;;5024141;28;20482;-63
2023/09/07 01:16:51;;;;;;;8.40;6.53;;;17.10;21.10;;;;;;5025553;28;20478;-63
2023/09/07 01:19:18;;;;;;;11.57;7.40;;;17.10;21.10;;;;;;5021353;28;20458;-63
2023/09/07 01:21:47;;;;;;;8.87;6.73;;;17.10;21.00;;;;;;5028311;28;21170;-63
2023/09/07 01:24:16;;;;;;;9.77;7.00;;;17.10;21.40;;;;;;5029429;28;20489;-63
2023/09/07 01:26:43;;;;;;;9.47;6.80;;;17.00;21.80;;;;;;5027866;28;20467;-63
2023/09/07 01:29:09;;;;;;;8.90;6.63;;;17.00;22.10;;;;;;5026521;28;20526;-63
2023/09/07 01:31:37;;;;;;;8.60;7.53;;;16.90;21.80;;;;;;5026966;28;20471;-63
2023/09/07 01:34:06;;;;;;;11.70;7.20;;;17.00;22.10;;;;;;5028930;28;20585;-63
2023/09/07 01:36:33;;;;;;;10.93;6.90;;;16.90;22.10;;;;;;5024865;28;20546;-63
2023/09/07 01:39:01;;;;;;;10.80;7.57;;;16.90;22.10;;;;;;5025157;28;20581;-63
2023/09/07 01:41:29;;;;;;;11.73;8.03;;;16.90;22.30;;;;;;5025102;28;20493;-63
2023/09/07 01:43:55;;;;;;;9.70;7.63;;;16.90;22.60;;;;;;5028327;28;21003;-63
2023/09/07 01:46:22;;;;;;;11.57;8.20;;;16.80;22.30;;;;;;5026248;28;20470;-63
2023/09/07 01:48:49;;;;;;;12.43;7.60;;;16.80;22.40;;;;;;5026414;28;20838;-63
2023/09/07 01:51:15;;;;;;;12.40;8.60;;;16.80;22.40;;;;;;5027826;28;20486;-63
2023/09/07 01:53:42;;;;;;;9.63;7.10;;;16.80;22.50;;;;;;5027606;28;20478;-63
2023/09/07 01:56:10;;;;;;;10.10;7.90;;;16.80;22.90;;;;;;5025753;28;20489;-63
2023/09/07 01:58:37;;;;;;;11.27;8.00;;;16.80;23.30;;;;;;5024422;28;20459;-63
2023/09/07 02:01:03;;;;;;;9.53;7.80;;;16.70;23.50;;;;;;5026401;28;20479;-64
2023/09/07 02:03:30;;;;;;;9.93;8.07;;;16.70;23.90;;;;;;5029952;28;20995;-63
2023/09/07 02:05:57;;;;;;;13.70;8.97;;;16.70;24.40;;;;;;5026183;28;20466;-63
2023/09/07 02:08:24;;;;;;;10.27;8.27;;;16.70;24.40;;;;;;5029335;28;20481;-63
2023/09/07 02:10:50;;;;;;;15.73;8.13;;;16.70;24.50;;;;;;5027105;28;20573;-63
2023/09/07 02:13:18;;;;;;;11.80;9.70;;;16.60;24.90;;;;;;5028331;28;20501;-63
2023/09/07 02:15:45;;;;;;;11.50;10.30;;;16.60;24.80;;;;;;5024737;28;20468;-63
2023/09/07 02:18:12;;;;;;;12.67;10.60;;;16.60;25.10;;;;;;5027520;28;20564;-63
2023/09/07 02:20:38;;;;;;;11.10;8.83;;;16.60;25.30;;;;;;5027510;28;20467;-64
2023/09/07 02:23:09;;;;;;;12.97;8.90;;;16.50;25.50;;;;;;5026133;28;20489;-63
2023/09/07 02:25:36;;;;;;;9.57;8.20;;;16.50;25.50;;;;;;5027093;28;20474;-63
2023/09/07 02:28:02;;;;;;;9.30;7.80;;;16.50;25.70;;;;;;5030014;28;20470;-63
2023/09/07 02:30:30;;;;;;;10.60;8.60;;;16.40;25.90;;;;;;5025219;28;20480;-63
2023/09/07 02:32:57;;;;;;;12.07;9.13;;;16.40;26.10;;;;;;5023309;28;20487;-63
2023/09/07 02:35:24;;;;;;;12.17;9.23;;;16.40;26.10;;;;;;5030238;28;20463;-63
2023/09/07 02:37:50;;;;;;;9.67;8.13;;;16.40;26.20;;;;;;5030428;28;20467;-63
2023/09/07 02:40:17;;;;;;;9.77;8.27;;;16.40;26.50;;;;;;5025784;28;20473;-63
2023/09/07 02:42:44;;;;;;;10.70;8.77;;;16.40;26.50;;;;;;5021051;28;20460;-63
2023/09/07 02:45:11;;;;;;;8.97;7.60;;;16.40;26.30;;;;;;5019873;28;20958;-63
2023/09/07 02:47:40;;;;;;;9.93;8.40;;;16.30;26.60;;;;;;5030153;28;20474;-63
2023/09/07 02:50:07;;;;;;;9.53;8.10;;;16.30;26.90;;;;;;5026578;28;20474;-63
2023/09/07 02:52:34;;;;;;;12.90;8.97;;;16.30;27.10;;;;;;5027355;28;20487;-63
2023/09/07 02:55:00;;;;;;;11.20;8.10;;;16.20;27.20;;;;;;5028165;28;20499;-63
2023/09/07 02:57:27;;;;;;;11.50;9.20;;;16.20;27.40;;;;;;5028548;28;20469;-63
2023/09/07 02:59:54;;;;;;;12.77;7.90;;;16.20;27.80;;;;;;5026431;28;20470;-63
2023/09/07 03:02:21;;;;;;;11.17;8.33;;;16.10;28.00;;;;;;5025365;28;20947;-63
2023/09/07 03:04:53;;;;;;;11.47;8.80;;;16.10;28.10;;;;;;5027888;28;21060;-63
2023/09/07 03:07:20;;;;;;;10.90;8.27;;;16.10;28.40;;;;;;5026906;28;20459;-63
2023/09/07 03:09:47;;;;;;;11.33;8.87;;;16.00;28.40;;;;;;5027287;28;20470;-63
2023/09/07 03:12:14;;;;;;;13.50;8.77;;;16.00;28.60;;;;;;5024137;28;20462;-63
2023/09/07 03:14:44;;;;;;;14.23;10.03;;;16.00;28.80;;;;;;5022564;28;20475;-63
2023/09/07 03:17:10;;;;;;;13.20;9.33;;;16.00;29.00;;;;;;5027690;28;20498;-63
2023/09/07 03:19:37;;;;;;;10.43;8.53;;;16.00;29.20;;;;;;5028016;28;20461;-64
2023/09/07 03:22:05;;;;;;;13.40;9.10;;;15.90;29.50;;;;;;5025057;28;20533;-64
2023/09/07 03:24:32;;;;;;;10.03;8.60;;;15.90;29.50;;;;;;5025724;28;20489;-63
2023/09/07 03:26:59;;;;;;;11.93;10.23;;;15.90;29.60;;;;;;5026859;28;20495;-63
2023/09/07 03:29:26;;;;;;;12.17;9.33;;;15.90;30.00;;;;;;5024288;28;20547;-63
2023/09/07 03:31:53;;;;;;;13.10;10.27;;;15.90;29.70;;;;;;5020166;28;20476;-63
2023/09/07 03:34:20;;;;;;;10.67;8.60;;;15.90;29.90;;;;;;5021779;28;20488;-63
2023/09/07 03:36:47;;;;;;;11.10;8.80;;;15.90;29.70;;;;;;5025391;28;20558;-63
2023/09/07 03:39:15;;;;;;;15.27;10.53;;;15.80;29.90;;;;;;5023905;28;20471;-63
2023/09/07 03:41:42;;;;;;;11.87;9.70;;;15.90;29.80;;;;;;5019503;28;20467;-64
2023/09/07 03:44:09;;;;;;;14.07;11.03;;;15.80;30.00;;;;;;5023579;28;20475;-64
2023/09/07 03:46:35;;;;;;;13.47;10.10;;;15.80;29.80;;;;;;5023104;28;20463;-63
2023/09/07 03:49:02;;;;;;;11.90;9.80;;;15.80;29.80;;;;;;5028911;28;20459;-64
2023/09/07 03:51:29;;;;;;;10.93;9.20;;;15.80;29.70;;;;;;5023942;28;20458;-63
2023/09/07 03:53:55;;;;;;;13.23;9.17;;;15.80;29.80;;;;;;5018795;28;21067;-64
2023/09/07 03:56:24;;;;;;;12.03;9.70;;;15.80;29.70;;;;;;5018998;28;20474;-64
2023/09/07 03:58:50;;;;;;;14.90;10.90;;;15.80;29.60;;;;;;5028736;28;20491;-64
2023/09/07 04:01:17;;;;;;;15.10;10.60;;;15.80;29.50;;;;;;5027779;28;20475;-62
2023/09/07 04:03:44;;;;;;;13.33;10.87;;;15.80;29.60;;;;;;5026688;28;20482;-64
2023/09/07 04:06:10;;;;;;;12.70;10.60;;;15.80;29.80;;;;;;5023742;28;20467;-64
2023/09/07 04:08:38;;;;;;;15.20;11.63;;;15.80;29.80;;;;;;5029042;28;20818;-64
2023/09/07 04:11:05;;;;;;;12.30;10.80;;;15.90;29.90;;;;;;5028212;28;20879;-64
2023/09/07 04:13:33;;;;;;;12.17;10.23;;;15.90;29.80;;;;;;5027355;28;20486;-63
2023/09/07 04:16:00;;;;;;;12.07;10.70;;;15.80;30.10;;;;;;5022636;28;20470;-63
2023/09/07 04:18:26;;;;;;;13.40;11.30;;;15.80;30.00;;;;;;5028520;28;20455;-63
2023/09/07 04:20:53;;;;;;;13.10;10.03;;;15.80;29.70;;;;;;5027822;28;20470;-64
2023/09/07 04:23:20;;;;;;;14.27;12.23;;;15.80;29.80;;;;;;5024309;28;20478;-63
2023/09/07 04:25:47;;;;;;;14.03;12.53;;;15.80;29.90;;;;;;5028900;28;20466;-63
2023/09/07 04:28:14;;;;;;;15.93;13.40;;;15.80;30.20;;;;;;5024515;28;20466;-64
2023/09/07 04:30:42;;;;;;;14.93;13.10;;;15.70;30.60;;;;;;5027536;28;20462;-64
2023/09/07 04:33:09;;;;;;;14.70;13.30;;;15.70;30.10;;;;;;5023944;28;20481;-63
2023/09/07 04:35:36;;;;;;;17.53;14.13;;;15.70;30.30;;;;;;5025218;28;20954;-64
2023/09/07 04:38:03;;;;;;;13.97;11.90;;;15.70;30.50;;;;;;5026758;28;20470;-64
2023/09/07 04:40:30;;;;;;;16.07;12.70;;;15.70;30.30;;;;;;5024198;28;20541;-64
2023/09/07 04:42:57;;;;;;;13.97;11.80;;;15.80;30.20;;;;;;5026569;28;20462;-64
2023/09/07 04:45:23;;;;;;;19.30;12.73;;;15.70;30.40;;;;;;5028139;28;20546;-64
2023/09/07 04:47:52;;;;;;;14.23;12.83;;;15.70;30.40;;;;;;5029206;28;20459;-64
2023/09/07 04:50:18;;;;;;;14.00;12.30;;;15.70;30.80;;;;;;5026869;28;20964;-64
2023/09/07 04:52:45;;;;;;;16.20;13.00;;;15.70;30.60;;;;;;5026048;28;20455;-64
2023/09/07 04:55:12;;;;;;;15.13;12.23;;;15.70;30.50;;;;;;5026411;28;20837;-64
2023/09/07 04:57:39;;;;;;;18.13;11.77;;;15.70;30.40;;;;;;5024640;28;20459;-64
2023/09/07 05:00:07;;;;;;;15.30;11.80;;;15.70;30.20;;;;;;5026469;28;20470;-64
2023/09/07 05:02:38;;;;;;;11.70;10.50;;;15.70;30.20;;;;;;5024529;28;20471;-64
2023/09/07 05:05:07;;;;;;;12.60;10.73;;;15.70;30.10;;;;;;5026386;28;20549;-64
2023/09/07 05:07:34;;;;;;;15.57;11.97;;;15.70;30.30;;;;;;5028650;28;20459;-64
2023/09/07 05:10:00;;;;;;;15.33;12.33;;;15.70;30.20;;;;;;5027292;28;20987;-64
2023/09/07 05:12:27;;;;;;;14.70;13.00;;;15.80;30.40;;;;;;5027413;28;20498;-64
2023/09/07 05:14:54;;;;;;;13.37;10.53;;;16.00;30.20;;;;;;5027594;28;20498;-64
2023/09/07 05:17:21;;;;;;;15.90;11.67;;;16.40;29.00;;;;;;5025917;28;20462;-64
2023/09/07 05:19:47;;;;;;;13.20;11.47;;;16.80;28.10;;;;;;5028667;28;20455;-64
2023/09/07 05:22:15;;;;;;;15.50;10.40;;;17.30;27.00;;;;;;5027282;28;20459;-65
2023/09/07 05:24:45;;;;;;;12.97;9.90;;;17.80;25.50;;;;;;5020979;28;20510;-64
2023/09/07 05:27:12;;;;;;;12.90;9.77;;;18.20;24.40;;;;;;5026449;28;20467;-64
2023/09/07 05:29:38;;;;;;;11.53;8.53;;;18.60;23.10;;;;;;5027642;28;20540;-64
2023/09/07 05:32:07;;;;;;;12.97;9.30;;;19.00;22.10;;;;;;5025770;28;20819;-64
2023/09/07 05:34:34;;;;;;;12.73;10.07;;;19.30;21.30;;;;;;5024012;28;20483;-64
2023/09/07 05:37:00;;;;;;;12.57;9.97;;;19.50;20.20;;;;;;5027720;28;20558;-64
2023/09/07 05:39:28;;;;;;;12.03;9.57;;;19.70;19.70;;;;;;5030728;28;20469;-64
2023/09/07 05:41:55;;;;;;;11.50;9.10;;;19.90;19.40;;;;;;5021600;28;20459;-64
2023/09/07 05:44:22;;;;;;;13.17;9.87;;;20.10;18.90;;;;;;5022979;28;20483;-64
2023/09/07 05:46:48;;;;;;;10.40;8.27;;;20.20;18.80;;;;;;5027235;28;20467;-64
2023/09/07 05:49:15;;;;;;;9.93;8.00;;;20.30;18.30;;;;;;5025585;28;20838;-64
2023/09/07 05:51:42;;;;;;;9.80;8.80;;;20.50;17.90;;;;;;5027093;28;20466;-64
2023/09/07 05:54:08;;;;;;;9.73;8.20;;;20.60;17.30;;;;;;5025324;28;20479;-64
2023/09/07 05:56:36;;;;;;;10.30;7.97;;;20.80;16.40;;;;;;5026678;28;20466;-64
2023/09/07 05:59:03;;;;;;;10.70;8.20;;;21.30;15.60;;;;;;5023605;28;20459;-65
2023/09/07 06:01:30;;;;;;;9.43;7.50;;;21.80;14.40;;;;;;5028313;28;21031;-64
2023/09/07 06:03:57;;;;;;;9.80;8.30;;;22.20;13.20;;;;;;5030103;28;21017;-65
2023/09/07 06:06:23;;;;;;;10.03;8.50;;;22.50;12.40;;;;;;5030359;28;20462;-64
2023/09/07 06:08:50;;;;;;;11.20;9.00;;;22.80;11.70;;;;;;5031197;28;20459;-64
2023/09/07 06:11:17;;;;;;;9.90;8.10;;;23.30;10.80;;;;;;5030644;28;20894;-64
2023/09/07 06:13:46;;;;;;;10.33;9.23;;;24.10;9.10;;;;;;5029464;28;20485;-64
2023/09/07 06:16:12;;;;;;;10.40;9.23;;;25.20;6.90;;;;;;5028129;28;20545;-64
2023/09/07 06:18:39;;;;;;;12.30;7.77;;;26.20;4.20;;;;;;5026594;28;20829;-64
2023/09/07 06:21:06;;;;;;;9.40;8.50;;;27.20;2.00;;;;;;5029059;28;20466;-64
2023/09/07 06:23:33;;;;;;;10.43;8.57;;;28.40;1.00;;;;;;5027399;28;21294;-64
2023/09/07 06:26:00;;;;;;;9.50;7.23;;;29.40;1.00;;;;;;5031753;28;20466;-64
2023/09/07 06:28:27;;;;;;;11.70;8.37;;;30.40;1.00;;;;;;5028655;28;20512;-65
2023/09/07 06:30:55;;;;;;;7.90;7.10;;;31.30;1.00;;;;;;5029606;28;20470;-65
2023/09/07 06:33:22;;;;;;;7.93;7.13;;;32.40;1.00;;;;;;5027220;28;20475;-65
2023/09/07 06:35:48;;;;;;;9.70;7.47;;;33.20;1.00;;;;;;5029197;28;20455;-65
2023/09/07 06:38:15;;;;;;;7.33;6.57;;;34.10;1.00;;;;;;5029932;28;20474;-65
2023/09/07 06:40:42;;;;;;;8.70;6.47;;;35.20;1.00;;;;;;5026065;28;20467;-65
2023/09/07 06:43:08;;;;;;;8.43;6.13;;;35.90;1.00;;;;;;5028450;28;20483;-65
2023/09/07 06:45:36;;;;;;;8.37;7.20;;;36.40;1.00;;;;;;5030681;28;20512;-64
2023/09/07 06:48:05;;;;;;;6.90;6.10;;;37.20;1.00;;;;;;5025228;28;20801;-64
2023/09/07 06:50:31;;;;;;;11.57;7.20;;;38.10;1.00;;;;;;5027439;28;20462;-65
2023/09/07 06:52:58;;;;;;;6.93;5.57;;;38.90;1.00;;;;;;5029596;28;20470;-64
2023/09/07 06:55:25;;;;;;;6.30;5.63;;;39.80;1.00;;;;;;5029326;28;20483;-64
2023/09/07 06:57:51;;;;;;;7.47;5.93;;;40.80;1.00;;;;;;5028936;28;20471;-64
2023/09/07 07:00:18;;;;;;;8.83;5.53;;;41.40;1.00;;;;;;5028579;28;20805;-64
2023/09/07 07:02:45;;;;;;;7.40;5.50;;;42.20;1.00;;;;;;5027918;28;20842;-65
2023/09/07 07:05:13;;;;;;;8.17;6.23;;;42.90;1.00;;;;;;5027518;28;20463;-64
2023/09/07 07:07:40;;;;;;;7.37;6.60;;;43.60;1.00;;;;;;5029810;28;20463;-64
2023/09/07 07:10:08;;;;;;;6.77;6.07;;;44.30;1.00;;;;;;5029205;28;20470;-65
2023/09/07 07:12:34;;;;;;;6.57;5.87;;;44.80;1.00;;;;;;5027811;28;20470;-65
2023/09/07 07:15:02;;;;;;;7.73;5.77;;;45.30;1.00;;;;;;5026037;28;20475;-65
2023/09/07 07:17:29;;;;;;;8.93;5.70;;;45.90;1.00;;;;;;5030095;28;20568;-65
2023/09/07 07:19:55;;;;;;;7.40;5.60;;;46.30;1.00;;;;;;5028261;28;20455;-65
2023/09/07 07:22:23;;;;;;;6.57;5.87;;;46.90;1.00;;;;;;5024072;28;20466;-65
2023/09/07 07:24:50;;;;;;;5.97;5.37;;;47.40;1.00;;;;;;5027902;28;20498;-65
2023/09/07 07:27:17;;;;;;;8.53;6.13;;;47.10;1.00;;;;;;5029881;28;20462;-65
2023/09/07 07:29:44;;;;;;;6.60;5.60;;;47.30;1.00;;;;;;5027894;28;20512;-65
2023/09/07 07:32:11;;;;;;;10.00;6.03;;;47.60;1.00;;;;;;5027727;28;20482;-65
2023/09/07 07:34:37;;;;;;;6.90;5.83;;;47.90;1.00;;;;;;5027991;28;21006;-65
2023/09/07 07:37:04;;;;;;;7.87;5.90;;;47.70;1.00;;;;;;5027756;28;20489;-65
2023/09/07 07:39:32;;;;;;;8.23;6.23;;;47.50;1.00;;;;;;5026777;28;20455;-66
2023/09/07 07:41:59;;;;;;;7.67;5.70;;;47.60;1.00;;;;;;5023910;28;20474;-65
2023/09/07 07:44:25;;;;;;;6.37;5.40;;;47.60;1.00;;;;;;5028549;28;20558;-65
2023/09/07 07:46:52;;;;;;;7.20;6.37;;;48.10;1.00;;;;;;5028492;28;20493;-66
2023/09/07 07:49:19;;;;;;;7.33;5.27;;;48.20;1.00;;;;;;5026918;28;20459;-65
2023/09/07 07:51:45;;;;;;;6.40;5.80;;;48.20;1.00;;;;;;5023612;28;20467;-66
2023/09/07 07:54:12;;;;;;;6.80;5.67;;;48.40;1.00;;;;;;5025665;28;20497;-66
2023/09/07 07:56:41;;;;;;;6.20;5.07;;;48.80;1.00;;;;;;5029050;28;20463;-66
2023/09/07 07:59:08;;;;;;;6.87;5.53;;;49.00;1.00;;;;;;5027669;28;20459;-65
2023/09/07 08:01:36;;;;;;;6.10;5.40;;;49.50;1.00;;;;;;5026948;28;20478;-66
2023/09/07 08:04:02;;;;;;;6.07;5.13;;;49.60;1.00;;;;;;5028259;28;20483;-66
2023/09/07 08:06:29;;;;;;;8.97;6.80;;;49.70;1.00;;;;;;5027461;28;20829;-66
2023/09/07 08:08:56;;;;;;;9.43;5.77;;;49.70;1.00;;;;;;5028108;28;20462;-66
2023/09/07 08:11:23;;;;;;;8.97;5.67;;;49.30;1.00;;;;;;5027922;28;20823;-65
2023/09/07 08:13:51;;;;;;;9.03;6.50;;;49.00;1.00;;;;;;5024145;28;20484;-65
2023/09/07 08:16:18;;;;;;;8.80;5.10;;;48.80;1.00;;;;;;5025788;28;21243;-65
2023/09/07 08:18:45;;;;;;;9.43;5.90;;;48.60;1.00;;;;;;5026901;28;20471;-66
2023/09/07 08:21:12;;;;;;;7.23;6.00;;;49.00;1.00;;;;;;5028270;28;20465;-66
2023/09/07 08:23:39;;;;;;;6.83;5.40;;;49.50;1.00;;;;;;5024686;28;20486;-65
2023/09/07 08:26:06;;;;;;;9.10;6.17;;;49.80;1.00;;;;;;5024956;28;21309;-66
2023/09/07 08:28:33;;;;;;;6.80;5.50;;;49.70;1.00;;;;;;5025392;28;20462;-66
2023/09/07 08:31:01;;;;;;;9.70;6.50;;;50.10;1.00;;;;;;5025103;28;20470;-66
2023/09/07 08:33:28;;;;;;;9.03;5.90;;;50.60;1.00;;;;;;5026247;28;20478;-66
2023/09/07 08:35:56;;;;;;;16.73;6.40;;;50.90;1.00;;;;;;5027059;28;20525;-66
2023/09/07 08:38:26;;;;;;;21.53;6.80;;;51.50;1.00;;;;;;5028089;28;20937;-65
2023/09/07 08:40:54;;;;;;;8.17;5.80;;;51.30;1.00;;;;;;5025684;28;20470;-65
2023/09/07 08:43:22;;;;;;;8.37;5.53;;;51.10;1.00;;;;;;5022171;28;20478;-66
2023/09/07 08:45:57;;;;;;;9.00;5.70;;;51.60;1.00;;;;;;5026123;28;20951;-65
2023/09/07 08:48:28;;;;;;;7.10;5.30;;;52.10;1.00;;;;;;5026744;28;20802;-65
2023/09/07 08:50:56;;;;;;;9.53;5.80;;;52.90;1.00;;;;;;5023538;28;20489;-66
2023/09/07 08:53:23;;;;;;;7.77;6.20;;;52.90;1.00;;;;;;5027660;28;21056;-65
2023/09/07 08:55:50;;;;;;;5.80;5.13;;;52.10;1.00;;;;;;5025588;28;20528;-66
2023/09/07 08:58:17;;;;;;;7.80;5.17;;;52.00;1.00;;;;;;5028308;28;20457;-66
2023/09/07 09:00:44;;;;;;;8.07;6.00;;;52.60;1.00;;;;;;5025546;28;20473;-66
2023/09/07 09:03:13;;;;;;;6.00;5.07;;;53.00;1.00;;;;;;5024444;28;20573;-65
2023/09/07 09:05:41;;;;;;;6.23;5.63;;;53.20;1.00;;;;;;5026250;28;20459;-67
2023/09/07 09:08:09;;;;;;;13.40;5.87;;;53.40;1.00;;;;;;5028371;28;20498;-65
2023/09/07 09:10:35;;;;;;;8.47;5.90;;;52.80;1.00;;;;;;5024542;28;20466;-65
2023/09/07 09:13:02;;;;;;;8.87;5.80;;;52.00;1.00;;;;;;5027555;28;20572;-65
2023/09/07 09:15:29;;;;;;;8.40;5.77;;;50.80;1.00;;;;;;5024876;28;20478;-65
2023/09/07 09:17:56;;;;;;;6.50;5.60;;;51.30;1.00;;;;;;5024992;28;20466;-65
2023/09/07 09:20:23;;;;;;;7.00;6.40;;;51.80;1.00;;;;;;5027063;28;20473;-66
2023/09/07 09:22:53;;;;;;;6.23;5.50;;;52.50;1.00;;;;;;5027629;28;20454;-66
2023/09/07 09:25:20;;;;;;;7.60;5.60;;;53.00;1.00;;;;;;5026714;28;20970;-66
2023/09/07 09:27:47;;;;;;;8.80;5.30;;;53.20;1.00;;;;;;5026886;28;20464;-66
2023/09/07 09:30:16;;;;;;;10.00;5.30;;;53.40;1.00;;;;;;5022468;28;20463;-66
2023/09/07 09:32:43;;;;;;;6.17;5.30;;;53.30;1.00;;;;;;5026301;28;20516;-65
2023/09/07 09:35:10;;;;;;;5.90;4.80;;;53.20;1.00;;;;;;5027590;28;21021;-65
2023/09/07 09:37:44;;;;;;;6.70;4.73;;;53.60;1.00;;;;;;5030368;28;20946;-66
2023/09/07 09:40:14;;;;;;;6.07;5.43;;;54.00;1.00;;;;;;5031112;28;20480;-67
2023/09/07 09:42:43;;;;;;;8.13;5.23;;;54.60;1.00;;;;;;5030770;28;20458;-66
2023/09/07 09:45:10;;;;;;;5.30;4.70;;;54.70;1.00;;;;;;5027920;28;20824;-66
2023/09/07 09:47:40;;;;;;;7.97;5.67;;;54.70;1.00;;;;;;5026062;28;20466;-66
2023/09/07 09:50:08;;;;;;;6.27;5.00;;;54.80;1.00;;;;;;5032667;28;20500;-66
2023/09/07 09:52:35;;;;;;;6.13;5.53;;;55.20;1.00;;;;;;5030519;28;20557;-66
2023/09/07 09:55:05;;;;;;;5.70;5.10;;;55.30;1.00;;;;;;5025408;28;20543;-65
2023/09/07 09:57:34;;;;;;;6.80;5.80;;;55.50;1.00;;;;;;5031659;28;20466;-65
2023/09/07 10:00:06;;;;;;;6.70;5.63;;;55.50;1.00;;;;;;5025474;28;20461;-66
2023/09/07 10:02:37;;;;;;;8.57;5.73;;;55.20;1.00;;;;;;5028712;28;20561;-65
2023/09/07 10:05:07;;;;;;;7.90;5.67;;;55.30;1.00;;;;;;5024333;28;20482;-65
2023/09/07 10:07:43;;;;;;;9.80;6.10;;;54.70;1.00;;;;;;5031370;28;20494;-66
2023/09/07 10:10:11;;;;;;;5.93;5.33;;;54.50;1.00;;;;;;5024969;28;20473;-66
2023/09/07 10:12:43;;;;;;;6.10;5.27;;;54.40;1.00;;;;;;5028772;28;20494;-66
2023/09/07 10:15:21;;;;;;;7.97;5.73;;;54.00;1.00;;;;;;5031106;28;20482;-66
2023/09/07 10:17:50;;;;;;;10.50;4.87;;;53.60;1.00;;;;;;5027586;28;20465;-66
2023/09/07 10:20:17;;;;;;;6.30;4.23;;;53.50;1.00;;;;;;5030529;28;20847;-65
2023/09/07 10:22:45;;;;;;;6.30;5.30;;;53.60;1.00;;;;;;5028841;28;20458;-65
2023/09/07 10:25:22;;;;;;;10.77;6.10;;;53.60;1.00;;;;;;5030149;28;20546;-65
2023/09/07 10:27:50;;;;;;;7.80;5.13;;;53.20;1.00;;;;;;5023398;28;20467;-65
2023/09/07 10:30:19;;;;;;;6.20;4.77;;;52.90;1.00;;;;;;5022537;28;21016;-66
2023/09/07 10:32:47;;;;;;;6.33;5.37;;;52.90;1.00;;;;;;5027364;28;20462;-65
2023/09/07 10:35:18;;;;;;;6.40;5.13;;;52.90;1.00;;;;;;5029622;28;20478;-66
2023/09/07 10:37:47;;;;;;;6.07;5.47;;;52.90;1.00;;;;;;5025888;28;20466;-66
2023/09/07 10:40:19;;;;;;;8.10;4.83;;;52.80;1.00;;;;;;5026098;28;20462;-65
2023/09/07 10:42:45;;;;;;;6.03;5.27;;;52.70;1.00;;;;;;5031344;28;20546;-66
2023/09/07 10:45:17;;;;;;;8.77;5.70;;;52.80;1.00;;;;;;5026730;28;20470;-66
2023/09/07 10:47:45;;;;;;;8.23;5.70;;;52.60;1.00;;;;;;5030171;28;20463;-65
2023/09/07 10:50:13;;;;;;;7.57;5.33;;;52.20;1.00;;;;;;5029430;28;20556;-65
2023/09/07 10:52:41;;;;;;;8.10;4.97;;;52.00;1.00;;;;;;5028463;28;20877;-65
2023/09/07 10:55:10;;;;;;;6.27;5.40;;;51.70;1.00;;;;;;5037557;23;20490;-67
2023/09/07 10:57:42;;;;;;;6.10;5.37;;;51.40;1.00;;;;;;5029382;28;20458;-67
2023/09/07 11:00:10;;;;;;;7.00;5.60;;;50.80;1.00;;;;;;5027733;28;20827;-68
2023/09/07 11:02:39;;;;;;;6.63;5.93;;;50.60;1.00;;;;;;5024886;28;20462;-67
2023/09/07 11:05:06;;;;;;;6.90;5.87;;;50.10;1.00;;;;;;5007985;28;20537;-67
2023/09/07 11:07:33;;;;;;;7.00;5.70;;;49.20;1.00;;;;;;5009521;28;20464;-67
2023/09/07 11:10:03;;;;;;;10.93;5.43;;;48.00;1.00;;;;;;5007915;28;20463;-68
2023/09/07 11:12:30;;;;;;;9.23;5.70;;;47.30;1.00;;;;;;5006800;28;20530;-67
2023/09/07 11:14:57;;;;;;;6.23;5.53;;;45.90;1.00;;;;;;5007404;28;20502;-67
2023/09/07 11:17:27;;;;;;;9.50;6.20;;;44.10;1.00;;;;;;5007606;28;20467;-68
2023/09/07 11:19:55;;;;;;;6.80;5.23;;;42.30;1.00;;;;;;5004223;28;20526;-69
2023/09/07 11:22:23;;;;;;;8.47;6.30;;;40.70;1.00;;;;;;5007300;28;20529;-69
2023/09/07 11:24:50;;;;;;;7.40;5.97;;;39.20;1.00;;;;;;5006069;28;20986;-69
2023/09/07 11:27:19;;;;;;;8.97;6.70;;;38.00;1.00;;;;;;5005695;28;20462;-69
2023/09/07 11:29:52;;;;;;;7.97;5.90;;;36.80;1.00;;;;;;5004785;28;20555;-69
2023/09/07 11:32:21;;;;;;;6.73;6.03;;;35.90;1.00;;;;;;5004025;28;20523;-69
2023/09/07 11:34:51;;;;;;;8.27;5.77;;;35.10;1.00;;;;;;5006948;28;20990;-69
2023/09/07 11:37:24;;;;;;;9.33;5.80;;;34.60;1.00;;;;;;5009677;28;20479;-69
2023/09/07 11:39:51;;;;;;;10.03;6.83;;;34.10;1.00;;;;;;5007812;28;20482;-68
2023/09/07 11:42:18;;;;;;;9.43;7.17;;;33.80;1.00;;;;;;5008663;28;20460;-68
2023/09/07 11:44:45;;;;;;;10.43;5.93;;;33.20;1.00;;;;;;5002846;28;20492;-69
2023/09/07 11:47:11;;;;;;;8.07;6.37;;;32.70;1.00;;;;;;5009338;28;20460;-68
2023/09/07 11:49:38;;;;;;;10.47;7.40;;;32.30;1.00;;;;;;5008361;28;20456;-68
2023/09/07 11:52:05;;;;;;;9.33;6.20;;;32.10;1.00;;;;;;5003914;28;21183;-68
2023/09/07 11:54:33;;;;;;;8.70;6.87;;;31.90;1.00;;;;;;5005074;28;20479;-68
2023/09/07 11:57:00;;;;;;;9.10;7.03;;;31.70;1.00;;;;;;5005681;28;20572;-68
2023/09/07 11:59:28;;;;;;;7.93;7.13;;;31.40;1.00;;;;;;5008017;28;20468;-68
2023/09/07 12:01:54;;;;;;;9.13;6.20;;;31.20;1.00;;;;;;5007454;28;20480;-68
2023/09/07 12:04:21;;;;;;;6.93;6.23;;;31.00;1.00;;;;;;5008852;28;20501;-68
2023/09/07 12:06:48;;;;;;;12.83;7.70;;;30.80;1.00;;;;;;5008535;28;20460;-68
2023/09/07 12:09:17;;;;;;;7.40;6.20;;;30.70;1.00;;;;;;5006341;28;20852;-68
2023/09/07 12:11:45;;;;;;;8.87;6.57;;;30.60;1.00;;;;;;5004968;28;21171;-68
2023/09/07 12:14:12;;;;;;;8.70;6.20;;;30.40;1.00;;;;;;5006561;28;20483;-68
2023/09/07 12:16:39;;;;;;;9.30;6.20;;;30.30;1.00;;;;;;5004223;28;20495;-68
2023/09/07 12:19:06;;;;;;;8.13;6.40;;;30.20;1.00;;;;;;5005700;28;20459;-68
2023/09/07 12:21:33;;;;;;;7.40;6.10;;;30.00;1.00;;;;;;5008392;28;20471;-68
2023/09/07 12:24:00;;;;;;;7.23;6.53;;;30.00;1.00;;;;;;5003741;28;20479;-68
2023/09/07 12:26:26;;;;;;;7.70;6.67;;;29.80;1.00;;;;;;5008837;28;20479;-68
2023/09/07 12:28:54;;;;;;;7.30;6.50;;;29.70;1.00;;;;;;5007124;28;20463;-68
2023/09/07 12:31:21;;;;;;;8.37;6.23;;;29.60;1.00;;;;;;5007595;28;20553;-68
2023/09/07 12:33:48;;;;;;;11.00;5.90;;;29.30;1.00;;;;;;5003982;28;20480;-68
2023/09/07 12:36:14;;;;;;;7.73;5.63;;;29.30;1.00;;;;;;5008093;28;20990;-68
2023/09/07 12:38:41;;;;;;;11.83;6.63;;;29.10;1.00;;;;;;5004081;28;21175;-68
2023/09/07 12:41:08;;;;;;;11.20;8.07;;;29.20;1.00;;;;;;5005824;28;20468;-68
2023/09/07 12:43:34;;;;;;;7.67;6.47;;;29.00;1.00;;;;;;5003350;28;20483;-68
2023/09/07 12:46:03;;;;;;;8.70;6.30;;;28.80;1.00;;;;;;5005152;28;20456;-68